KPOB/POB METAR and TAF weather

Enter ICAO airport designator
Station Type Date Time Source
KPOB METAR 2019/05/25 09:28 UTC NOAA

KPOB 250928Z AUTO 11004KT 10SM OVC070 24/20 A3010 RMK AO2 SLP193 $


Station Type Date Time Source
KPOB Decoded METAR 2019/05/25 09:28 UTC NOAA

Pope Air Force Base, NC, United States (KPOB) 35-10N 079-02W 61M
May 25, 2019 - 05:28 AM EDT / 2019.05.25 0928 UTC
Wind: from the ESE (110 degrees) at 5 MPH (4 KT):0
Visibility: 10 mile(s):0
Sky conditions: overcast
Temperature: 75 F (24 C)
Dew Point: 68 F (20 C)
Relative Humidity: 78%
Pressure (altimeter): 30.1 in. Hg (1019 hPa)
ob: KPOB 250928Z AUTO 11004KT 10SM OVC070 24/20 A3010 RMK AO2 SLP193
cycle: 9

Station Type Date Time Source
KPOB TAF 2019/05/25 09:21 UTC NOAA

TAF KPOB 250900Z 2509/2615 12009KT 9999 BKN030 QNH3002INS
BECMG 2522/2523 16009KT 9999 VCTS BKN030CB QNH3002INS
TEMPO 2523/2602 8000 -TSRA BKN030CB
BECMG 2606/2607 28006KT 9999 NSW BKN030 QNH3003INS
TEMPO 2607/2612 BKN005 TX35/2520Z TN21/2511Z

Example: see airport list